Time;durP1;ratioP1;P1;durP2;ratioP2;P2;SDS_P1;SDS_P2;PMS_P1;PMS_P2;Temp;Humidity;BMP_temperature;BMP_pressure;BME280_temperature;BME280_humidity;BME280_pressure;Samples;Min_cycle;Max_cycle;Signal;HPM_P1;HPM_P2
2022/01/20 00:00:16;;;;;;;4.00;3.00;;;6.20;81.90;;;6.54;56.73;99352.53;4864937;28;123012;-89
2022/01/20 00:02:43;;;;;;;5.13;3.50;;;6.20;82.20;;;6.49;57.19;99355.28;4857004;28;119116;-89
2022/01/20 00:26:15;;;;;;;3.37;3.00;;;6.00;83.40;;;6.34;57.39;99360.72;4832492;29;119205;-88
2022/01/20 00:28:44;;;;;;;4.07;2.90;;;6.00;83.70;;;6.29;58.12;99363.47;4878371;28;118748;-88
2022/01/20 00:32:12;;;;;;;4.97;3.13;;;5.90;83.60;;;6.28;57.53;99372.78;4871936;29;123725;-88
2022/01/20 00:38:22;;;;;;;3.30;2.70;;;5.90;84.00;;;6.24;58.40;99368.94;4876684;28;121193;-88
2022/01/20 00:40:50;;;;;;;3.47;2.80;;;5.90;84.00;;;6.25;58.72;99370.59;4880805;28;119749;-88
2022/01/20 00:43:37;;;;;;;3.20;2.70;;;5.90;84.20;;;6.24;57.75;99374.44;4868422;29;123660;-87
2022/01/20 00:46:10;;;;;;;3.70;2.70;;;5.80;84.30;;;6.18;58.31;99373.59;4870608;29;122821;-88
2022/01/20 00:48:57;;;;;;;3.10;2.37;;;5.80;84.60;;;6.17;58.07;99386.47;4870212;28;119305;-88
2022/01/20 00:51:24;;;;;;;4.00;2.83;;;5.80;84.70;;;6.15;58.80;99391.44;4848734;29;118569;-88
2022/01/20 00:57:33;;;;;;;2.67;2.20;;;5.80;85.00;;;6.07;58.73;99397.44;4885359;28;123901;-88
2022/01/20 01:00:08;;;;;;;3.17;2.60;;;5.70;84.80;;;6.08;59.32;99393.59;4869586;29;118981;-89
2022/01/20 01:08:50;;;;;;;2.60;2.37;;;5.70;85.10;;;6.08;58.54;99406.47;4860889;29;123613;-89
2022/01/20 01:15:01;;;;;;;2.90;2.40;;;5.70;85.40;;;6.02;59.51;99413.00;4862390;29;120059;-88
2022/01/20 01:21:45;;;;;;;2.50;1.90;;;5.60;86.00;;;5.89;60.08;99417.88;4879736;29;124770;-88
2022/01/20 01:25:09;;;;;;;2.00;1.73;;;5.50;86.00;;;5.89;59.77;99411.56;4881675;29;118730;-85
2022/01/20 01:28:40;;;;;;;2.30;2.00;;;5.50;86.30;;;5.90;60.03;99402.25;4882566;28;118858;-86
2022/01/20 01:31:36;;;;;;;2.20;1.90;;;5.50;86.40;;;5.90;60.26;99407.72;4843510;29;123798;-87
2022/01/20 01:40:48;;;;;;;1.80;1.70;;;5.50;86.70;;;5.97;60.77;99408.34;4876454;29;120883;-88
2022/01/20 01:43:33;;;;;;;1.77;1.63;;;5.50;86.80;;;5.98;60.24;99404.50;4865990;29;123416;-87
2022/01/20 01:46:02;;;;;;;2.47;1.90;;;5.60;87.20;;;5.94;60.81;99403.41;4860257;29;123446;-87
2022/01/20 01:48:30;;;;;;;2.50;2.30;;;5.50;87.10;;;5.93;60.77;99401.69;4859412;29;119209;-85
2022/01/20 01:51:15;;;;;;;1.83;1.63;;;5.50;87.50;;;5.93;60.08;99396.22;4857086;29;118045;-87
2022/01/20 01:53:43;;;;;;;2.50;1.93;;;5.50;87.50;;;5.88;60.60;99396.19;4868922;29;124193;-86
2022/01/20 02:00:11;;;;;;;3.13;2.10;;;5.50;87.50;;;5.88;61.11;99412.66;4863965;29;120422;-87
2022/01/20 02:02:38;;;;;;;2.63;2.23;;;5.50;87.60;;;5.86;60.39;99404.69;4865062;29;117812;-87
2022/01/20 02:18:12;;;;;;;2.20;2.00;;;5.50;88.00;;;5.84;61.34;99397.84;4862713;29;125188;-87
2022/01/20 02:20:40;;;;;;;2.13;1.83;;;5.40;88.10;;;5.82;60.98;99391.78;4859137;29;123500;-86
2022/01/20 02:26:50;;;;;;;2.20;2.00;;;5.40;88.20;;;5.71;61.61;99388.97;4844901;29;119175;-85
2022/01/20 02:29:21;;;;;;;1.90;1.70;;;5.90;88.70;;;5.72;61.96;99379.69;4853881;29;123876;-87
2022/01/20 02:35:44;;;;;;;2.73;1.87;;;5.30;88.80;;;5.59;61.74;99374.69;4877635;28;121244;-86
2022/01/20 02:48:01;;;;;;;1.73;1.63;;;5.20;89.50;;;5.53;62.64;99381.19;4882858;28;120244;-86
2022/01/20 02:50:48;;;;;;;1.80;1.50;;;5.20;89.60;;;5.58;62.28;99378.50;4882683;28;118553;-86
2022/01/20 02:53:14;;;;;;;2.10;1.40;;;5.20;89.70;;;5.58;62.36;99383.16;4889223;28;124731;-86
2022/01/20 02:56:19;;;;;;;1.73;1.60;;;5.20;89.60;;;5.67;62.46;99392.50;4878479;29;123102;-86
2022/01/20 03:02:27;;;;;;;2.30;1.70;;;5.30;89.90;;;5.67;62.85;99393.38;4878721;29;119987;-88
2022/01/20 03:05:14;;;;;;;2.50;1.60;;;5.30;89.80;;;5.71;62.46;99396.38;4878934;29;123618;-87
2022/01/20 03:08:20;;;;;;;1.80;1.60;;;5.30;90.00;;;5.73;62.26;99384.06;4879771;28;123497;-83
2022/01/20 03:14:28;;;;;;;1.70;1.60;;;5.30;89.80;;;5.75;62.05;99389.28;4881669;28;119870;-88
2022/01/20 03:16:56;;;;;;;1.70;1.40;;;5.30;89.80;;;5.84;62.45;99401.41;4890899;28;124272;-87
2022/01/20 03:23:05;;;;;;;1.40;1.30;;;5.40;90.00;;;5.96;61.47;99399.31;4889076;28;120245;-87
2022/01/20 03:25:36;;;;;;;1.37;1.27;;;5.50;90.00;;;5.99;62.05;99400.66;4871332;29;118819;-89
2022/01/20 03:29:05;;;;;;;1.50;1.40;;;5.90;90.10;;;6.03;61.71;99412.75;4885678;28;123350;-87
2022/01/20 03:31:32;;;;;;;1.50;1.40;;;5.50;90.00;;;6.02;61.60;99399.28;4878601;29;124260;-88
2022/01/20 03:34:00;;;;;;;1.40;1.30;;;5.60;90.00;;;6.06;62.36;99400.44;4875647;28;121033;-87
2022/01/20 03:37:07;;;;;;;1.53;1.20;;;5.60;90.00;;;6.13;61.97;99398.28;4877237;28;118938;-86
2022/01/20 03:43:15;;;;;;;1.57;1.43;;;5.70;90.10;;;6.14;62.03;99392.50;4879799;28;124244;-87
2022/01/20 03:45:47;;;;;;;1.30;1.20;;;5.70;90.00;;;6.18;61.93;99388.13;4895208;28;118589;-88
2022/01/20 03:48:15;;;;;;;2.40;1.60;;;5.70;90.00;;;6.22;62.28;99398.56;4841644;29;118395;-88
2022/01/20 03:51:00;;;;;;;1.50;1.40;;;5.90;90.10;;;6.21;62.24;99392.25;4874314;29;123762;-88
2022/01/20 03:53:36;;;;;;;1.63;1.50;;;5.70;90.10;;;6.24;61.75;99390.91;4878898;28;123570;-88
2022/01/20 03:56:23;;;;;;;1.47;1.37;;;5.70;90.10;;;6.24;62.23;99388.16;4885194;28;119205;-88
2022/01/20 03:59:10;;;;;;;1.43;1.33;;;5.70;90.10;;;6.23;61.93;99376.34;4858963;29;118955;-87
2022/01/20 04:01:37;;;;;;;1.63;1.53;;;5.80;90.20;;;6.19;61.89;99376.06;4866453;29;122878;-88
2022/01/20 04:04:04;;;;;;;1.50;1.40;;;5.80;90.20;;;6.19;61.77;99381.53;4868421;28;121630;-87
2022/01/20 04:10:12;;;;;;;1.70;1.50;;;5.80;90.20;;;6.19;61.67;99402.69;4886928;28;119191;-88
2022/01/20 04:12:57;;;;;;;1.90;1.80;;;5.80;90.20;;;6.24;61.77;99407.38;4855267;29;121886;-85
2022/01/20 04:15:36;;;;;;;4.70;1.70;;;5.80;90.20;;;6.19;62.22;99397.19;4855483;29;121795;-88
2022/01/20 04:21:45;;;;;;;1.73;1.60;;;5.80;90.20;;;6.11;62.16;99393.03;4879435;29;119919;-88
2022/01/20 04:24:32;;;;;;;1.97;1.77;;;5.70;90.30;;;6.12;62.64;99383.72;4860084;29;124352;-88
2022/01/20 04:30:42;;;;;;;2.17;1.93;;;5.70;90.30;;;6.10;62.49;99399.63;4868966;29;120786;-88
2022/01/20 04:33:10;;;;;;;2.03;1.83;;;5.70;90.30;;;6.10;61.83;99402.38;4876641;28;119776;-88
2022/01/20 04:35:37;;;;;;;1.60;1.50;;;5.70;90.30;;;6.10;62.24;99396.03;4890813;28;124547;-89
2022/01/20 04:38:07;;;;;;;2.00;1.80;;;5.70;90.30;;;6.11;62.42;99395.78;4878437;28;123444;-89
2022/01/20 04:40:39;;;;;;;1.80;1.70;;;5.70;90.30;;;6.09;62.48;99387.00;4857438;29;117142;-89
2022/01/20 04:43:47;;;;;;;3.10;1.77;;;5.70;90.40;;;6.10;62.21;99396.88;4867556;29;119532;-89
2022/01/20 04:46:49;;;;;;;1.57;1.47;;;5.70;90.30;;;6.10;62.55;99402.38;4838216;28;122087;-88
2022/01/20 04:57:58;;;;;;;2.10;1.90;;;5.70;90.50;;;6.02;63.64;99393.81;4866581;29;124439;-85
2022/01/20 05:00:46;;;;;;;1.50;1.40;;;5.60;90.50;;;6.05;63.13;99394.13;4872198;29;121998;-88
2022/01/20 05:03:54;;;;;;;1.80;1.60;;;5.70;90.60;;;6.03;63.74;99396.31;4858190;29;118323;-88
2022/01/20 05:06:21;;;;;;;1.83;1.73;;;5.60;90.70;;;6.00;63.33;99394.09;4852805;29;117477;-88
2022/01/20 05:08:51;;;;;;;4.20;1.70;;;5.60;90.70;;;6.00;63.89;99407.00;4884754;28;123658;-86
2022/01/20 05:11:42;;;;;;;1.83;1.40;;;5.60;90.80;;;6.01;63.01;99406.72;4880416;28;123383;-89
2022/01/20 05:14:29;;;;;;;1.67;1.57;;;5.60;90.80;;;5.95;63.71;99405.88;4868494;29;119016;-88
2022/01/20 05:16:58;;;;;;;1.97;1.80;;;5.60;90.80;;;5.89;63.94;99401.41;4870568;28;118990;-88
2022/01/20 05:20:03;;;;;;;1.63;1.53;;;5.50;90.80;;;5.89;63.54;99398.69;4876556;28;123309;-88
2022/01/20 05:22:32;;;;;;;1.83;1.70;;;5.50;91.00;;;5.84;63.95;99401.41;4873645;29;123969;-88
2022/01/20 05:25:55;;;;;;;2.07;1.80;;;5.50;90.90;;;5.87;63.50;99405.53;4870889;29;119307;-88
2022/01/20 05:28:59;;;;;;;2.40;2.00;;;5.50;91.00;;;5.84;63.45;99419.78;4871600;28;120640;-88
2022/01/20 05:31:25;;;;;;;2.10;1.90;;;5.50;91.00;;;5.79;64.27;99417.00;4863238;28;126629;-87
2022/01/20 05:37:54;;;;;;;2.13;1.90;;;5.40;91.10;;;5.71;64.05;99404.59;4872174;28;120296;-89
2022/01/20 05:40:41;;;;;;;2.10;1.70;;;5.40;91.20;;;5.69;64.57;99418.56;4840621;28;116791;-88
2022/01/20 05:46:55;;;;;;;2.67;2.30;;;5.30;91.20;;;5.62;64.25;99423.47;4864417;29;96452;-89
2022/01/20 05:53:05;;;;;;;2.57;2.13;;;5.30;91.40;;;5.60;64.82;99427.56;4868880;28;119305;-88
2022/01/20 05:55:51;;;;;;;2.77;2.33;;;5.30;91.40;;;5.63;64.55;99416.06;4854369;29;123259;-88
2022/01/20 05:59:15;;;;;;;2.30;2.10;;;5.30;91.40;;;5.64;64.99;99421.31;4835263;29;122484;-89
2022/01/20 06:05:26;;;;;;;2.47;1.90;;;5.30;91.50;;;5.59;64.71;99426.75;4845594;28;119334;-88
2022/01/20 06:07:54;;;;;;;2.63;2.13;;;5.30;91.50;;;5.62;65.04;99423.47;4853586;28;123224;-87
2022/01/20 06:10:39;;;;;;;2.80;2.27;;;5.30;91.60;;;5.65;64.69;99424.88;4869864;28;122965;-89
2022/01/20 06:17:06;;;;;;;4.37;2.00;;;5.30;91.50;;;5.67;64.32;99436.38;4869391;28;119872;-89
2022/01/20 06:20:11;;;;;;;2.63;2.23;;;5.30;91.50;;;5.63;64.50;99422.38;4857088;28;121885;-88
2022/01/20 06:22:40;;;;;;;2.80;2.43;;;5.30;91.50;;;5.63;64.13;99418.81;4838324;29;123428;-84
2022/01/20 06:25:07;;;;;;;2.50;2.00;;;5.40;91.60;;;5.62;65.00;99418.00;4871643;28;120688;-90
2022/01/20 06:27:36;;;;;;;2.40;2.00;;;5.20;91.50;;;5.66;64.39;99421.03;4870133;28;119439;-90
2022/01/20 06:30:07;;;;;;;3.43;2.10;;;5.30;91.60;;;5.70;64.89;99419.41;4874242;28;123269;-88
2022/01/20 06:32:38;;;;;;;3.93;2.40;;;5.30;91.70;;;5.74;64.20;99418.59;4870606;28;122005;-89
2022/01/20 06:35:06;;;;;;;2.73;2.53;;;5.30;91.60;;;5.80;64.39;99413.16;4837010;29;116641;-90
2022/01/20 06:38:12;;;;;;;3.50;2.73;;;5.30;91.70;;;5.85;64.19;99421.41;4872257;28;118038;-90
2022/01/20 06:40:38;;;;;;;2.50;2.30;;;5.40;91.80;;;5.83;64.43;99427.19;4848675;29;121862;-89
2022/01/20 06:44:01;;;;;;;2.70;2.33;;;5.40;91.70;;;5.86;63.97;99425.81;4874877;28;123466;-90
2022/01/20 06:46:28;;;;;;;4.30;2.70;;;5.40;91.60;;;5.81;64.77;99414.81;4869025;28;119922;-85
2022/01/20 06:48:54;;;;;;;2.73;2.17;;;5.40;91.60;;;5.78;64.76;99415.31;4869309;29;119263;-88
2022/01/20 06:51:21;;;;;;;4.20;2.50;;;5.40;91.50;;;5.78;64.16;99426.28;4869673;29;123827;-89
2022/01/20 06:57:54;;;;;;;3.60;2.10;;;5.40;91.60;;;5.80;63.72;99430.44;4874710;28;119620;-89
2022/01/20 07:01:00;;;;;;;3.30;2.33;;;5.40;91.60;;;5.80;63.78;99427.69;4872949;28;118486;-90
2022/01/20 07:03:30;;;;;;;2.77;2.33;;;5.40;91.60;;;5.78;64.27;99437.25;4853637;29;122253;-89
2022/01/20 07:06:15;;;;;;;2.53;2.27;;;5.40;91.60;;;5.76;64.20;99426.56;4867927;28;124397;-90
2022/01/20 07:09:01;;;;;;;2.53;2.33;;;5.40;91.60;;;5.74;64.12;99424.09;4860294;28;119139;-89
2022/01/20 07:11:31;;;;;;;2.73;2.30;;;5.40;91.80;;;5.70;65.05;99425.72;4867812;28;118430;-89
2022/01/20 07:13:57;;;;;;;6.60;3.30;;;5.30;91.50;;;5.70;63.86;99428.47;4850256;28;121809;-87
2022/01/20 07:16:46;;;;;;;3.93;2.23;;;5.30;91.50;;;5.73;64.19;99436.16;4864433;28;122949;-88
2022/01/20 07:19:13;;;;;;;6.97;2.80;;;5.30;91.50;;;5.72;64.59;99455.59;4869000;28;120278;-88
2022/01/20 07:21:40;;;;;;;5.07;2.90;;;5.30;91.50;;;5.72;64.11;99450.97;4865594;28;119771;-87
2022/01/20 07:24:29;;;;;;;3.53;2.40;;;5.30;91.60;;;5.70;64.14;99436.69;4864780;28;123746;-88
2022/01/20 07:26:59;;;;;;;3.30;2.27;;;5.30;91.60;;;5.66;64.44;99449.25;4832698;28;123565;-89
2022/01/20 07:29:26;;;;;;;3.77;2.80;;;5.30;91.50;;;5.64;63.86;99461.56;4837345;28;117831;-87
2022/01/20 07:31:53;;;;;;;3.50;2.17;;;5.30;91.50;;;5.62;64.30;99467.34;4830971;29;116965;-88
2022/01/20 07:34:21;;;;;;;3.03;1.83;;;5.20;91.50;;;5.61;64.18;99462.94;4826795;29;123710;-87
2022/01/20 07:36:47;;;;;;;3.50;2.63;;;5.20;91.50;;;5.62;64.15;99470.09;4851846;28;123152;-87
2022/01/20 07:39:15;;;;;;;4.80;1.77;;;5.20;91.50;;;5.63;64.32;99474.47;4860373;29;119116;-88
2022/01/20 07:42:39;;;;;;;3.83;2.03;;;5.20;91.50;;;5.65;63.97;99483.25;4864859;28;119064;-86
2022/01/20 07:45:06;;;;;;;2.77;2.00;;;5.20;91.50;;;5.59;64.58;99487.06;4862283;29;124679;-87
2022/01/20 07:47:53;;;;;;;2.80;2.40;;;5.20;91.50;;;5.59;64.25;99484.31;4858638;29;123556;-89
2022/01/20 07:50:20;;;;;;;3.70;2.10;;;5.20;91.50;;;5.54;64.33;99501.53;4847290;28;118165;-88
2022/01/20 07:52:48;;;;;;;3.67;2.17;;;5.20;91.50;;;5.53;64.54;99507.28;4856485;28;118597;-88
2022/01/20 07:55:17;;;;;;;4.00;2.40;;;5.20;91.50;;;5.51;64.98;99504.81;4839263;29;123365;-88
2022/01/20 07:57:45;;;;;;;2.70;2.17;;;5.50;91.70;;;5.49;64.51;99500.69;4840375;29;123945;-87
2022/01/20 08:00:13;;;;;;;4.77;2.53;;;5.10;91.50;;;5.48;64.85;99516.31;4849784;28;118657;-89
2022/01/20 08:02:40;;;;;;;9.07;3.40;;;5.10;91.50;;;5.50;64.05;99507.81;4859766;28;118153;-87
2022/01/20 08:05:07;;;;;;;6.33;2.27;;;5.10;91.70;;;5.52;64.02;99500.97;4854124;28;123337;-89
2022/01/20 08:07:55;;;;;;;5.50;2.20;;;5.10;91.50;;;5.58;64.09;99504.56;4840774;29;123029;-89
2022/01/20 08:10:21;;;;;;;4.00;2.23;;;5.10;91.50;;;5.58;63.62;99501.84;4845960;28;120272;-88
2022/01/20 08:12:52;;;;;;;6.13;2.83;;;5.20;91.50;;;5.62;63.84;99508.47;4860721;28;119942;-87
2022/01/20 08:15:44;;;;;;;5.00;2.57;;;5.20;91.40;;;5.66;63.43;99503.25;4837998;28;123807;-89
2022/01/20 08:18:11;;;;;;;3.40;2.40;;;5.20;91.40;;;5.67;64.01;99513.97;4857353;28;124194;-89
2022/01/20 08:20:39;;;;;;;3.50;2.40;;;5.20;91.30;;;5.73;63.57;99512.91;4858683;28;119074;-88
2022/01/20 08:23:06;;;;;;;4.77;2.70;;;5.30;91.40;;;5.81;64.11;99508.06;4855576;28;118644;-88
2022/01/20 08:25:34;;;;;;;6.23;2.43;;;5.30;91.30;;;5.84;63.65;99510.25;4857034;28;123744;-88
2022/01/20 08:28:03;;;;;;;4.80;2.57;;;5.30;91.20;;;5.85;62.65;99506.41;4856358;28;123921;-85
2022/01/20 08:30:31;;;;;;;4.60;2.37;;;5.40;91.20;;;5.87;62.85;99517.94;4855068;28;118344;-84
2022/01/20 08:32:59;;;;;;;6.60;3.00;;;5.40;91.10;;;5.87;62.84;99512.47;4853642;29;118791;-81
2022/01/20 08:35:31;;;;;;;5.30;2.00;;;5.40;91.00;;;5.89;63.11;99505.63;4849520;28;124062;-83
2022/01/20 08:38:17;;;;;;;6.57;2.30;;;5.40;91.00;;;5.96;62.94;99516.38;4836418;28;122904;-81
2022/01/20 08:40:45;;;;;;;5.50;2.80;;;5.50;91.00;;;5.95;63.04;99523.78;4846618;28;119052;-85
2022/01/20 08:43:12;;;;;;;6.20;2.93;;;5.60;91.00;;;6.00;62.57;99522.19;4852370;28;119669;-89
2022/01/20 08:45:40;;;;;;;8.40;3.93;;;5.50;90.90;;;5.97;62.33;99518.88;4836283;28;123774;-87
2022/01/20 08:48:11;;;;;;;4.43;3.10;;;5.50;90.80;;;5.95;62.34;99531.22;4839622;29;123609;-89
2022/01/20 08:50:41;;;;;;;3.17;2.13;;;5.50;90.60;;;5.92;61.66;99527.03;4838815;29;119411;-87
2022/01/20 08:53:08;;;;;;;5.43;2.70;;;5.50;90.60;;;5.90;61.93;99528.38;4838947;29;117640;-88
2022/01/20 08:55:37;;;;;;;7.20;3.27;;;5.50;90.50;;;5.89;62.34;99540.47;4823941;29;122651;-87
2022/01/20 08:58:06;;;;;;;6.83;2.80;;;5.50;90.50;;;5.90;62.38;99550.34;4856771;28;123824;-88
2022/01/20 09:00:35;;;;;;;9.17;3.03;;;5.50;90.40;;;5.89;61.75;99554.19;4840275;28;119698;-88
2022/01/20 09:03:03;;;;;;;4.50;2.27;;;5.50;90.30;;;5.90;61.58;99569.53;4844876;28;118321;-88
2022/01/20 09:05:31;;;;;;;5.30;2.60;;;5.50;90.30;;;5.90;61.64;99559.38;4855343;28;124071;-88
2022/01/20 09:07:58;;;;;;;14.90;3.40;;;5.50;90.30;;;5.92;61.96;99570.09;4856991;28;123782;-89
2022/01/20 09:10:51;;;;;;;7.27;3.10;;;5.50;90.30;;;5.93;61.45;99574.47;4861287;28;118156;-90
2022/01/20 09:16:22;;;;;;;6.57;2.33;;;5.50;90.20;;;5.90;61.44;99577.75;4849138;28;124932;-89
2022/01/20 09:18:49;;;;;;;6.60;2.90;;;5.50;90.10;;;5.90;61.42;99573.09;4850117;28;122722;-87
2022/01/20 09:21:20;;;;;;;5.90;3.47;;;5.50;90.10;;;5.94;61.32;99573.44;4850402;28;119651;-87
2022/01/20 09:23:50;;;;;;;10.80;2.90;;;5.50;90.10;;;5.98;61.16;99558.91;4851639;28;119522;-88
2022/01/20 09:26:19;;;;;;;6.20;2.90;;;5.50;90.10;;;6.00;61.44;99555.94;4851746;28;122867;-88
2022/01/20 09:28:45;;;;;;;6.30;2.70;;;5.50;90.00;;;6.01;61.50;99545.78;4854124;28;123323;-89
2022/01/20 09:31:16;;;;;;;9.73;2.67;;;5.60;90.00;;;6.06;60.93;99554.03;4861174;28;119264;-88
2022/01/20 09:33:42;;;;;;;8.53;2.63;;;5.60;90.00;;;6.08;60.91;99555.44;4843862;28;118263;-86
2022/01/20 09:36:28;;;;;;;6.07;2.67;;;5.60;90.00;;;6.14;60.67;99562.59;4845868;29;123277;-86
2022/01/20 09:38:55;;;;;;;7.70;2.80;;;5.70;89.80;;;6.13;60.24;99565.63;4861353;28;123680;-88
2022/01/20 09:41:23;;;;;;;6.00;2.97;;;5.70;89.60;;;6.15;60.49;99563.41;4864484;28;121119;-86
2022/01/20 09:43:51;;;;;;;7.30;2.93;;;5.70;89.60;;;6.15;60.69;99563.41;4855593;28;118581;-87
2022/01/20 09:46:21;;;;;;;9.30;3.40;;;5.70;89.40;;;6.16;60.38;99557.69;4845262;29;124241;-89
2022/01/20 09:48:47;;;;;;;7.20;3.00;;;5.70;89.30;;;6.18;60.31;99557.44;4842744;29;121668;-88
2022/01/20 09:51:14;;;;;;;9.43;3.03;;;5.90;89.60;;;6.23;60.67;99551.94;4840848;28;118680;-87
2022/01/20 09:53:41;;;;;;;6.87;3.27;;;5.80;89.60;;;6.27;60.99;99538.53;4854680;28;119958;-89
2022/01/20 09:56:07;;;;;;;10.50;3.07;;;5.80;89.40;;;6.29;60.51;99544.59;4836254;28;123197;-87
2022/01/20 09:58:34;;;;;;;18.33;3.80;;;5.80;89.30;;;6.31;60.15;99551.44;4853704;29;123083;-89
2022/01/20 10:01:03;;;;;;;10.83;2.17;;;5.90;89.30;;;6.35;60.04;99549.84;4855459;28;118999;-88
2022/01/20 10:03:31;;;;;;;8.37;3.50;;;5.90;89.20;;;6.40;60.43;99560.84;4836064;29;118238;-89
2022/01/20 10:06:00;;;;;;;8.07;2.53;;;5.90;89.30;;;6.45;59.68;99561.94;4853487;28;124010;-88
2022/01/20 10:08:30;;;;;;;13.83;3.47;;;6.00;89.00;;;6.45;59.64;99570.19;4854928;28;122828;-90
2022/01/20 10:10:58;;;;;;;5.73;2.77;;;6.00;88.90;;;6.48;59.53;99573.25;4852225;28;119472;-89
2022/01/20 10:13:36;;;;;;;7.30;2.80;;;6.00;88.90;;;6.56;59.92;99582.88;4848893;28;118917;-88
2022/01/20 10:16:11;;;;;;;6.70;2.97;;;6.10;89.00;;;6.60;59.49;99576.56;4849457;28;123231;-88
2022/01/20 10:18:57;;;;;;;5.03;2.57;;;6.10;89.00;;;6.68;59.48;99566.19;4852117;28;122956;-89
2022/01/20 10:21:36;;;;;;;7.63;2.77;;;6.20;88.90;;;6.69;59.85;99576.06;4858889;28;119692;-89
2022/01/20 10:24:21;;;;;;;7.67;2.70;;;6.20;88.50;;;6.70;59.31;99580.47;4865631;28;118934;-87
2022/01/20 10:26:51;;;;;;;10.23;2.30;;;6.20;88.40;;;6.72;59.07;99589.28;4854918;28;124125;-89
2022/01/20 10:29:18;;;;;;;8.20;2.70;;;6.20;88.20;;;6.71;59.75;99584.88;4839666;28;123194;-88
2022/01/20 10:32:04;;;;;;;10.43;3.70;;;6.20;88.10;;;6.70;58.90;99586.78;4853757;28;119473;-88
2022/01/20 10:34:37;;;;;;;8.50;2.73;;;6.20;87.80;;;6.66;59.00;99582.91;4842694;29;118767;-87
2022/01/20 10:37:26;;;;;;;6.00;3.43;;;6.40;88.00;;;6.68;58.79;99583.47;4853572;28;123971;-88
2022/01/20 10:40:16;;;;;;;6.77;3.53;;;6.20;87.80;;;6.71;59.14;99587.63;4853163;28;123735;-89
2022/01/20 10:42:46;;;;;;;12.33;2.90;;;6.30;87.60;;;6.65;57.99;99573.03;4854361;28;120393;-90
2022/01/20 10:45:25;;;;;;;10.97;2.50;;;6.50;87.20;;;6.66;58.46;99563.69;4859017;28;119990;-90
2022/01/20 10:47:58;;;;;;;6.83;2.70;;;6.20;86.80;;;6.63;57.97;99570.53;4860155;28;123617;-89
2022/01/20 10:50:36;;;;;;;7.47;2.97;;;6.20;87.10;;;6.63;58.66;99570.53;4854268;28;124330;-89
2022/01/20 10:53:23;;;;;;;6.93;2.43;;;6.20;86.80;;;6.61;58.04;99566.44;4861663;28;118431;-88
2022/01/20 10:55:51;;;;;;;3.43;2.37;;;6.20;86.60;;;6.58;58.61;99556.81;4861504;28;119465;-88
2022/01/20 10:58:22;;;;;;;5.80;3.13;;;6.10;86.70;;;6.60;57.94;99567.53;4834658;29;124305;-89
2022/01/20 11:00:54;;;;;;;8.53;2.57;;;6.20;86.80;;;6.63;58.30;99562.31;4855042;28;123055;-88
2022/01/20 11:03:23;;;;;;;12.40;3.43;;;6.20;86.70;;;6.66;57.69;99562.88;4847318;28;118785;-88
2022/01/20 11:05:52;;;;;;;9.20;3.00;;;6.20;86.60;;;6.64;58.26;99568.66;4856331;28;119275;-88
2022/01/20 11:08:21;;;;;;;8.07;3.27;;;6.30;86.50;;;6.60;58.11;99554.59;4852788;28;123414;-88
2022/01/20 11:10:51;;;;;;;11.83;3.70;;;6.20;86.30;;;6.58;57.84;99558.72;4862204;28;124144;-89
2022/01/20 11:13:20;;;;;;;7.30;2.90;;;6.20;86.30;;;6.57;57.85;99546.91;4864466;28;119304;-88
2022/01/20 11:15:46;;;;;;;9.00;2.93;;;6.20;86.50;;;6.60;58.34;99543.63;4855677;28;118010;-88
2022/01/20 11:18:13;;;;;;;8.70;2.50;;;6.30;86.70;;;6.62;57.88;99544.19;4838737;29;121962;-87
2022/01/20 11:20:46;;;;;;;7.70;3.07;;;6.20;86.60;;;6.63;58.13;99532.09;4818580;29;123693;-89
2022/01/20 11:23:14;;;;;;;7.73;3.30;;;6.20;86.70;;;6.67;58.65;99532.41;4844374;28;119967;-89
2022/01/20 11:25:43;;;;;;;5.60;2.70;;;6.30;86.80;;;6.68;58.55;99533.22;4854430;28;118376;-88
2022/01/20 11:28:15;;;;;;;10.97;3.33;;;6.30;86.70;;;6.66;58.12;99519.75;4852202;28;123861;-88
2022/01/20 11:31:07;;;;;;;8.77;3.50;;;6.30;86.60;;;6.68;58.41;99530.50;4843915;28;124245;-86
2022/01/20 11:33:40;;;;;;;6.43;3.23;;;6.20;86.40;;;6.69;58.35;99530.22;4845785;29;120287;-87
2022/01/20 11:36:23;;;;;;;9.77;2.73;;;6.20;86.60;;;6.69;57.89;99530.22;4854661;28;120099;-87
2022/01/20 11:38:53;;;;;;;10.37;3.20;;;6.30;86.50;;;6.67;58.15;99526.94;4830921;29;123258;-87
2022/01/20 11:41:22;;;;;;;6.53;3.10;;;6.20;86.30;;;6.67;58.21;99526.09;4860720;28;122997;-88
2022/01/20 11:43:52;;;;;;;9.83;2.90;;;6.30;86.20;;;6.68;58.05;99519.50;4854281;28;119614;-89
2022/01/20 11:46:25;;;;;;;7.57;3.00;;;6.20;86.10;;;6.68;57.83;99509.34;4845075;28;118879;-89
2022/01/20 11:49:21;;;;;;;10.17;3.33;;;6.30;86.30;;;6.75;57.69;99506.34;4856346;28;123369;-88
2022/01/20 11:52:07;;;;;;;6.10;2.70;;;6.30;86.10;;;6.79;57.43;99500.03;4854556;28;122987;-88
2022/01/20 11:54:38;;;;;;;9.07;3.10;;;6.30;85.90;;;6.81;56.86;99500.59;4848105;28;119239;-88
2022/01/20 11:57:14;;;;;;;8.80;2.67;;;6.40;85.50;;;6.83;57.53;99492.09;4850842;28;118208;-89
2022/01/20 11:59:54;;;;;;;8.20;3.13;;;6.40;85.50;;;6.92;56.45;99484.97;4843270;28;124625;-90
2022/01/20 12:02:34;;;;;;;9.33;3.10;;;6.50;85.20;;;6.99;56.61;99488.28;4835068;29;123827;-89
2022/01/20 12:05:17;;;;;;;6.53;2.47;;;6.50;85.20;;;7.08;56.84;99483.88;4858291;28;119320;-89
2022/01/20 12:08:10;;;;;;;6.37;2.40;;;6.60;85.30;;;7.15;55.88;99483.66;4854163;28;118946;-88
2022/01/20 12:10:39;;;;;;;3.37;2.17;;;6.70;84.80;;;7.18;56.49;99476.78;4846968;28;124221;-88
2022/01/20 12:13:10;;;;;;;4.17;2.20;;;6.70;84.60;;;7.22;56.18;99484.19;4857068;28;123758;-90
2022/01/20 12:16:00;;;;;;;6.37;2.30;;;6.70;84.20;;;7.25;55.47;99489.16;4854717;28;119464;-87
2022/01/20 12:19:08;;;;;;;8.40;2.27;;;6.80;84.00;;;7.24;55.56;99492.16;4843833;28;117999;-89
2022/01/20 12:21:53;;;;;;;5.60;2.83;;;6.80;83.70;;;7.25;55.68;99491.06;4853338;28;125827;-87
2022/01/20 12:24:20;;;;;;;3.80;2.60;;;6.80;83.50;;;7.22;55.81;99511.66;4843619;29;123986;-88
2022/01/20 12:27:25;;;;;;;11.70;2.97;;;6.80;83.60;;;7.27;55.18;99547.41;4847424;28;119113;-90
2022/01/20 12:29:53;;;;;;;2.87;1.80;;;6.80;83.10;;;7.14;55.23;99547.94;4855874;28;119135;-88
2022/01/20 12:33:00;;;;;;;8.87;1.43;;;6.70;83.00;;;6.92;55.33;99542.66;4847208;28;123099;-88
2022/01/20 12:35:50;;;;;;;2.60;1.40;;;6.50;83.20;;;6.74;56.40;99565.09;4859914;28;123153;-89
2022/01/20 12:38:39;;;;;;;1.57;1.20;;;7.10;84.20;;;6.57;56.46;99563.38;4843834;28;118696;-87
2022/01/20 12:41:14;;;;;;;3.17;1.93;;;6.20;83.90;;;6.47;57.04;99570.75;4861225;28;118828;-87
2022/01/20 12:43:51;;;;;;;4.70;1.20;;;6.20;84.30;;;6.40;57.48;99566.31;4842876;28;124669;-88
2022/01/20 12:46:23;;;;;;;2.70;1.33;;;6.10;84.40;;;6.32;57.41;99577.00;4858579;28;124584;-87
2022/01/20 12:49:01;;;;;;;3.90;1.47;;;6.00;84.50;;;6.25;57.37;99585.44;4811929;28;117488;-89
2022/01/20 12:51:45;;;;;;;2.93;1.47;;;6.00;84.80;;;6.13;58.26;99577.41;4837647;28;117900;-89
2022/01/20 12:54:21;;;;;;;3.97;1.70;;;5.90;85.00;;;6.02;57.73;99594.91;4845131;28;123865;-90
2022/01/20 12:56:51;;;;;;;4.43;1.63;;;5.80;85.10;;;5.95;58.06;99581.41;4849515;28;123223;-90
2022/01/20 12:59:32;;;;;;;3.90;1.87;;;6.00;85.60;;;5.89;58.77;99587.09;4858857;28;119025;-88
2022/01/20 13:02:24;;;;;;;5.00;1.53;;;5.70;85.60;;;5.81;58.77;99585.66;4845725;28;118870;-90
2022/01/20 13:05:04;;;;;;;6.77;1.77;;;5.50;85.60;;;5.69;58.87;99593.22;4858363;28;124516;-90
2022/01/20 13:07:37;;;;;;;3.20;1.70;;;5.40;86.00;;;5.59;59.25;99587.63;4857956;28;122991;-87
2022/01/20 13:10:32;;;;;;;3.33;1.70;;;5.30;86.10;;;5.48;59.41;99582.06;4859455;28;118554;-87
2022/01/20 13:13:05;;;;;;;3.70;2.20;;;5.20;86.50;;;5.38;59.58;99600.34;4862369;28;118205;-87
2022/01/20 13:15:52;;;;;;;4.30;1.47;;;5.10;86.60;;;5.34;59.71;99590.97;4838932;28;123926;-88
2022/01/20 13:18:57;;;;;;;3.03;2.00;;;5.00;86.90;;;5.26;59.41;99590.31;4834254;29;124440;-88
2022/01/20 13:21:53;;;;;;;2.30;1.60;;;5.00;87.30;;;5.21;60.04;99595.78;4868246;28;120364;-87
2022/01/20 13:25:12;;;;;;;4.43;1.80;;;4.90;87.30;;;5.16;60.33;99594.88;4867017;28;121207;-87
2022/01/20 13:28:01;;;;;;;5.57;2.13;;;4.90;87.60;;;5.06;60.56;99581.91;4842931;28;123173;-89
2022/01/20 13:30:36;;;;;;;9.87;1.93;;;4.70;87.80;;;5.00;60.46;99585.69;4854990;28;123718;-88